Tropical Cyclones
[Index]
Main Index Home Page Stock Weather Photos Extreme Storms Discussion Storm News and Storm Chasing Reports Tropical Cyclones / Hurricanes / Typhoons Weather Data and Links Wild Fires / Bushfires Weather Observation Techniques Weather Picture Catalogue Tornado Pictures and Reports Stock Video Footage and DVDs for sale
Season 1993-1994 Tropical Cyclone WILLY Track Map
Season 1993-1994 Summaries: [BoM-AU] [JTWC-AU] [JTWC-SIO] [JTWC-SPAC] [JTWC-SH]
<<- Previous TC | BoM 1993-1994 Season | Next TC ->>

click for intensity scale information  Lat/long Grid: Show Hide

 Date Labels: Show Hide

Bureau of Meteorology Tropical Cyclone Data

Name: WILLY
Number: 771 / 199394_11

27 Apr 1994 12:00 UTC to 02 May 1994 00:00 UTC

    date/time    lat    long    hPa   cat  kts
1994-04-27 12    6.8    93.7   1005         19          
1994-04-27 18    7.3    94.0   1005         19          
1994-04-28 00    7.7    94.3   1000         27          
1994-04-28 06    8.1    94.4   1000         27          
1994-04-28 12    8.7    95.0    995    1    35          
1994-04-28 18    9.2    95.3    990    1    41          
1994-04-28 21    9.5    95.4    985    2    47          
1994-04-29 00    9.8    95.4    985    2    47          
1994-04-29 03   10.1    95.5    985    2    47          
1994-04-29 06   10.6    95.7    985    2    47          
1994-04-29 09   11.2    95.8    985    2    47          
1994-04-29 12   11.7    95.9    985    2    47          
1994-04-29 15   12.3    96.0    990    1    41          
1994-04-29 18   12.5    95.8    990    1    41          
1994-04-29 21   12.7    95.5    990    1    41          
1994-04-30 00   12.9    95.2    995    1    35          
1994-04-30 03   13.2    94.9    995    1    35          
1994-04-30 06   13.4    94.8   1000         27          
1994-04-30 09   13.6    94.5   1000         27          
1994-04-30 12   13.9    94.2   1000         27          
1994-04-30 15   14.4    93.7   1005         19          
1994-04-30 18   15.0    93.2   1005         19          
1994-04-30 21   15.5    92.7   1005         19          
1994-05-01 00   16.0    92.2   1005         19          
1994-05-01 06   16.7    90.6   1005         19          
1994-05-01 12   17.0    89.2   1005         19          
1994-05-01 18   17.2    88.2   1005         19          
1994-05-02 00   17.4    87.3   1005         19          
Winds are 10-min average.

Tropical cyclone tracks developed by Michael Bath using data from the Bureau of Meteorology and Google Maps.


[Australian Severe Weather index] [Copyright Notice] [Email Contacts] [Search This Site] [Privacy Policy]
Document: tropical_cyclone_willy.htm Updated: 30 May 2013